Time;durP1;ratioP1;P1;durP2;ratioP2;P2;SDS_P1;SDS_P2;PMS_P1;PMS_P2;Temp;Humidity;BMP_temperature;BMP_pressure;BME280_temperature;BME280_humidity;BME280_pressure;Samples;Min_cycle;Max_cycle;Signal;HPM_P1;HPM_P2
2021/07/06 00:01:42;;;;;;;1.42;1.02;;;18.70;88.70;;;;;;5052751;28;20060;-79
2021/07/06 00:04:07;;;;;;;1.67;1.38;;;18.70;88.80;;;;;;5052826;28;20025;-79
2021/07/06 00:06:33;;;;;;;1.23;1.13;;;18.70;88.80;;;;;;5035207;28;20021;-78
2021/07/06 00:08:58;;;;;;;2.38;1.60;;;18.70;88.80;;;;;;5052515;28;20108;-79
2021/07/06 00:11:24;;;;;;;1.08;0.98;;;18.80;88.80;;;;;;5052941;28;20078;-79
2021/07/06 00:13:50;;;;;;;1.77;1.40;;;18.80;88.80;;;;;;5052835;28;20103;-79
2021/07/06 00:16:15;;;;;;;1.20;1.10;;;18.70;88.80;;;;;;5052875;28;20032;-79
2021/07/06 00:18:41;;;;;;;2.13;1.27;;;18.70;89.50;;;;;;5052705;28;20033;-79
2021/07/06 00:21:09;;;;;;;1.77;1.60;;;18.80;89.00;;;;;;5052858;28;20051;-79
2021/07/06 00:23:35;;;;;;;1.65;1.02;;;18.70;89.00;;;;;;5052423;28;20040;-79
2021/07/06 00:26:00;;;;;;;1.55;1.30;;;18.70;89.10;;;;;;5052721;28;20020;-78
2021/07/06 00:28:26;;;;;;;1.15;1.05;;;18.70;89.30;;;;;;5052840;28;20115;-78
2021/07/06 00:30:52;;;;;;;1.15;0.90;;;18.70;89.30;;;;;;5034941;28;20080;-80
2021/07/06 00:33:18;;;;;;;0.80;0.80;;;18.70;89.30;;;;;;5052546;28;20108;-78
2021/07/06 00:35:44;;;;;;;1.02;0.90;;;18.70;89.40;;;;;;5052767;28;20080;-79
2021/07/06 00:38:14;;;;;;;0.98;0.88;;;18.70;89.50;;;;;;5034338;28;20041;-79
2021/07/06 00:40:41;;;;;;;;;;;18.70;89.40;;;;;;5035187;28;20108;-78
2021/07/06 00:43:06;;;;;;;0.65;0.65;;;18.70;89.30;;;;;;5052752;28;19912;-79
2021/07/06 00:45:32;;;;;;;0.30;0.30;;;18.70;89.50;;;;;;5052739;28;20025;-79
2021/07/06 00:48:01;;;;;;;1.10;0.35;;;18.70;89.40;;;;;;5034802;28;20017;-80
2021/07/06 00:50:28;;;;;;;0.52;0.52;;;18.80;89.40;;;;;;5052634;28;20028;-80
2021/07/06 00:52:54;;;;;;;0.88;0.88;;;18.80;89.30;;;;;;5051963;28;20358;-79
2021/07/06 00:55:20;;;;;;;0.30;0.30;;;18.80;89.30;;;;;;5052731;28;20029;-79
2021/07/06 00:57:46;;;;;;;0.52;0.52;;;18.90;89.90;;;;;;5034624;28;20025;-79
2021/07/06 01:00:15;;;;;;;0.63;0.60;;;18.90;89.30;;;;;;5052183;28;20033;-78
2021/07/06 01:02:40;;;;;;;0.52;0.50;;;18.90;89.30;;;;;;5034728;28;20079;-79
2021/07/06 01:05:09;;;;;;;0.40;0.40;;;19.00;89.30;;;;;;5056139;28;20426;-79
2021/07/06 01:07:35;;;;;;;0.47;0.47;;;19.00;89.30;;;;;;5055630;28;20017;-79
2021/07/06 01:10:02;;;;;;;0.70;0.70;;;19.00;89.30;;;;;;5056104;28;20420;-80
2021/07/06 01:12:31;;;;;;;0.40;0.40;;;19.00;89.30;;;;;;5037944;28;20020;-79
2021/07/06 01:14:57;;;;;;;0.32;0.32;;;19.00;89.40;;;;;;5055821;28;20052;-80
2021/07/06 01:17:27;;;;;;;0.50;0.50;;;19.00;89.50;;;;;;5038049;28;20057;-79
2021/07/06 01:19:53;;;;;;;0.30;0.30;;;19.00;89.50;;;;;;5055928;28;20076;-79
2021/07/06 01:22:30;;;;;;;0.52;0.40;;;19.00;89.60;;;;;;5055245;28;20025;-79
2021/07/06 01:24:56;;;;;;;2.10;0.43;;;19.00;89.50;;;;;;5055869;28;20028;-79
2021/07/06 01:27:22;;;;;;;0.40;0.40;;;19.00;89.50;;;;;;5037768;28;20024;-79
2021/07/06 01:29:48;;;;;;;0.70;0.40;;;19.00;89.60;;;;;;5055595;28;20021;-78
2021/07/06 01:32:14;;;;;;;0.50;0.50;;;19.00;89.60;;;;;;5055689;28;20107;-79
2021/07/06 01:34:39;;;;;;;0.60;0.50;;;19.00;89.60;;;;;;5055404;28;20099;-78
2021/07/06 01:37:05;;;;;;;0.47;0.47;;;19.00;89.60;;;;;;5055298;28;20056;-79
2021/07/06 01:39:30;;;;;;;0.32;0.32;;;19.00;89.60;;;;;;5055553;28;20037;-80
2021/07/06 01:41:57;;;;;;;0.30;0.30;;;19.00;89.70;;;;;;5055534;28;20028;-79
2021/07/06 01:44:27;;;;;;;0.30;0.30;;;19.00;89.70;;;;;;5055303;28;20029;-79
2021/07/06 01:46:54;;;;;;;0.45;0.40;;;19.00;89.70;;;;;;5055295;28;20025;-78
2021/07/06 01:49:20;;;;;;;0.50;0.40;;;19.00;89.70;;;;;;5055444;28;20064;-78
2021/07/06 01:51:47;;;;;;;0.32;0.32;;;19.00;89.80;;;;;;5054922;28;20067;-79
2021/07/06 01:54:13;;;;;;;0.20;0.20;;;19.00;89.90;;;;;;5037509;28;20374;-79
2021/07/06 01:56:44;;;;;;;0.30;0.30;;;19.00;89.90;;;;;;5055386;28;20041;-79
2021/07/06 01:59:11;;;;;;;0.50;0.40;;;19.00;89.90;;;;;;5037206;28;20033;-78
2021/07/06 02:01:36;;;;;;;0.20;0.20;;;19.00;89.90;;;;;;5054965;28;20068;-79
2021/07/06 02:04:04;;;;;;;0.40;0.40;;;19.00;89.90;;;;;;5037159;28;20057;-79
2021/07/06 02:06:29;;;;;;;0.25;0.25;;;19.00;89.90;;;;;;5054548;28;20043;-80
2021/07/06 02:08:55;;;;;;;0.30;0.30;;;19.00;89.90;;;;;;5036966;28;20128;-78
2021/07/06 02:11:21;;;;;;;0.40;0.40;;;18.90;89.80;;;;;;5054862;28;20041;-79
2021/07/06 02:13:47;;;;;;;0.30;0.30;;;19.00;90.00;;;;;;5054842;28;20545;-80
2021/07/06 02:16:13;;;;;;;0.40;0.40;;;19.00;90.00;;;;;;5036155;28;20107;-80
2021/07/06 02:18:39;;;;;;;0.28;0.28;;;18.90;89.90;;;;;;5054689;28;20466;-79
2021/07/06 02:21:05;;;;;;;0.20;0.20;;;18.90;89.90;;;;;;5054221;28;20056;-78
2021/07/06 02:23:31;;;;;;;0.20;0.20;;;18.90;89.90;;;;;;5036907;28;20178;-80
2021/07/06 02:26:03;;;;;;;0.15;0.15;;;19.00;90.00;;;;;;5054608;28;20025;-80
2021/07/06 02:28:29;;;;;;;0.30;0.30;;;18.90;89.90;;;;;;5054482;28;20021;-78
2021/07/06 02:30:55;;;;;;;0.25;0.25;;;18.90;90.00;;;;;;5054497;28;20028;-80
2021/07/06 02:33:21;;;;;;;0.30;0.30;;;18.80;90.00;;;;;;5036139;28;20025;-80
2021/07/06 02:35:47;;;;;;;0.20;0.20;;;18.70;90.10;;;;;;5054460;28;20021;-79
2021/07/06 02:38:14;;;;;;;0.25;0.22;;;18.60;90.10;;;;;;5054343;28;20047;-80
2021/07/06 02:40:40;;;;;;;0.17;0.17;;;18.60;90.20;;;;;;5054237;28;20108;-79
2021/07/06 02:43:06;;;;;;;0.40;0.40;;;18.50;90.20;;;;;;5054216;28;20056;-79
2021/07/06 02:45:33;;;;;;;0.28;0.28;;;18.50;90.20;;;;;;5054269;28;20466;-78
2021/07/06 02:47:59;;;;;;;0.30;0.30;;;18.50;90.20;;;;;;5053916;28;20074;-79
2021/07/06 02:50:25;;;;;;;0.30;0.28;;;18.50;90.20;;;;;;5054101;28;20021;-78
2021/07/06 02:52:51;;;;;;;0.30;0.25;;;18.50;90.20;;;;;;5054087;28;20021;-79
2021/07/06 02:55:18;;;;;;;0.22;0.22;;;18.50;90.20;;;;;;5054034;28;20082;-79
2021/07/06 02:57:44;;;;;;;0.40;0.40;;;18.50;90.20;;;;;;5054003;28;20103;-79
2021/07/06 03:00:11;;;;;;;0.10;0.10;;;18.50;90.10;;;;;;5053469;28;20436;-78
2021/07/06 03:02:38;;;;;;;0.52;0.38;;;18.50;90.20;;;;;;5035643;28;20116;-79
2021/07/06 03:05:06;;;;;;;0.40;0.40;;;18.40;90.50;;;;;;5053892;28;20032;-79
2021/07/06 03:07:32;;;;;;;0.20;0.20;;;18.40;90.20;;;;;;5053729;28;20036;-80
2021/07/06 03:09:59;;;;;;;0.40;0.40;;;18.40;90.20;;;;;;5035793;28;20029;-79
2021/07/06 03:12:24;;;;;;;0.28;0.28;;;18.30;90.30;;;;;;5053789;28;20373;-79
2021/07/06 03:14:49;;;;;;;0.20;0.20;;;18.30;90.30;;;;;;5053620;28;20474;-79
2021/07/06 03:17:15;;;;;;;0.10;0.10;;;18.30;90.30;;;;;;5035389;28;20025;-79
2021/07/06 03:19:40;;;;;;;0.28;0.28;;;18.30;90.30;;;;;;5052204;28;20119;-80
2021/07/06 03:22:06;;;;;;;0.30;0.30;;;18.20;90.20;;;;;;5035809;28;20025;-78
2021/07/06 03:24:32;;;;;;;0.32;0.32;;;18.30;90.20;;;;;;5053804;28;20059;-79
2021/07/06 03:26:58;;;;;;;0.30;0.30;;;18.30;90.30;;;;;;5053386;28;20104;-79
2021/07/06 03:29:23;;;;;;;0.20;0.20;;;18.30;90.20;;;;;;5053571;28;20096;-79
2021/07/06 03:31:49;;;;;;;0.30;0.30;;;18.30;90.20;;;;;;5035219;28;20051;-79
2021/07/06 03:34:14;;;;;;;0.30;0.30;;;18.30;90.20;;;;;;5053308;28;20017;-80
2021/07/06 03:36:40;;;;;;;0.10;0.10;;;18.30;90.20;;;;;;5053428;28;20068;-79
2021/07/06 03:39:05;;;;;;;0.40;0.38;;;18.30;90.20;;;;;;5053134;28;20458;-78
2021/07/06 03:41:31;;;;;;;0.52;0.52;;;18.20;90.20;;;;;;5035525;28;20024;-78
2021/07/06 03:43:56;;;;;;;0.30;0.30;;;18.30;90.30;;;;;;5035564;28;20025;-79
2021/07/06 03:46:24;;;;;;;0.60;0.60;;;18.30;90.30;;;;;;5034964;28;20113;-80
2021/07/06 03:48:49;;;;;;;0.47;0.47;;;18.20;90.30;;;;;;5035256;28;20025;-80
2021/07/06 03:51:15;;;;;;;0.40;0.40;;;18.30;90.30;;;;;;5053265;28;20036;-80
2021/07/06 03:53:40;;;;;;;0.30;0.30;;;18.20;90.30;;;;;;5035374;28;20021;-79
2021/07/06 03:56:06;;;;;;;0.32;0.32;;;18.30;90.30;;;;;;5035377;28;20537;-81
2021/07/06 03:58:31;;;;;;;0.35;0.32;;;18.40;90.30;;;;;;5035295;28;20033;-78
2021/07/06 04:00:57;;;;;;;0.30;0.30;;;18.40;90.20;;;;;;5052649;28;20068;-78
2021/07/06 04:03:25;;;;;;;0.40;0.30;;;18.40;90.20;;;;;;5052934;28;20123;-80
2021/07/06 04:05:51;;;;;;;0.40;0.40;;;18.50;90.20;;;;;;5035021;28;20067;-80
2021/07/06 04:08:17;;;;;;;0.32;0.32;;;18.50;90.20;;;;;;5053384;28;20021;-80
2021/07/06 04:10:43;;;;;;;0.40;0.40;;;18.50;90.10;;;;;;5053069;28;20017;-79
2021/07/06 04:13:08;;;;;;;0.73;0.73;;;18.60;90.10;;;;;;5053125;28;20095;-80
2021/07/06 04:15:34;;;;;;;0.88;0.50;;;18.60;90.10;;;;;;5052506;28;20083;-79
2021/07/06 04:17:59;;;;;;;0.20;0.20;;;18.60;90.20;;;;;;5035173;28;20025;-79
2021/07/06 04:20:25;;;;;;;0.30;0.30;;;18.60;90.20;;;;;;5052692;28;20040;-80
2021/07/06 04:22:51;;;;;;;0.35;0.35;;;18.70;90.20;;;;;;5035088;28;20009;-80
2021/07/06 04:25:17;;;;;;;0.30;0.28;;;18.70;90.10;;;;;;5052827;28;20074;-80
2021/07/06 04:27:43;;;;;;;0.20;0.20;;;18.80;90.10;;;;;;5052762;28;20032;-80
2021/07/06 04:30:09;;;;;;;0.40;0.40;;;18.80;90.10;;;;;;5052445;28;20123;-82
2021/07/06 04:32:35;;;;;;;0.20;0.20;;;18.80;90.10;;;;;;5052781;28;20389;-81
2021/07/06 04:35:01;;;;;;;0.20;0.20;;;18.80;90.10;;;;;;5052713;28;20496;-82
2021/07/06 04:37:26;;;;;;;0.50;0.50;;;18.90;90.10;;;;;;5035036;28;20544;-81
2021/07/06 04:39:52;;;;;;;0.30;0.30;;;18.90;90.10;;;;;;5056374;28;20033;-80
2021/07/06 04:42:17;;;;;;;0.30;0.30;;;19.00;90.10;;;;;;5056512;28;20021;-82
2021/07/06 04:44:44;;;;;;;0.52;0.40;;;18.90;90.10;;;;;;5056179;28;20021;-82
2021/07/06 04:47:09;;;;;;;0.30;0.30;;;19.00;90.10;;;;;;5056656;28;20036;-81
2021/07/06 04:49:35;;;;;;;0.55;0.55;;;18.90;90.10;;;;;;5056362;28;20033;-81
2021/07/06 04:52:02;;;;;;;0.73;0.70;;;18.90;90.20;;;;;;5056407;28;20055;-82
2021/07/06 04:54:27;;;;;;;0.40;0.40;;;18.90;90.20;;;;;;5056421;28;20108;-83
2021/07/06 04:56:53;;;;;;;0.30;0.22;;;18.90;90.20;;;;;;5056230;28;20116;-82
2021/07/06 04:59:19;;;;;;;0.30;0.30;;;19.00;90.20;;;;;;5055869;28;20036;-81
2021/07/06 05:01:45;;;;;;;0.45;0.40;;;19.00;90.10;;;;;;5053891;28;20393;-82
2021/07/06 05:04:12;;;;;;;0.15;0.15;;;19.10;90.20;;;;;;5056117;28;20025;-82
2021/07/06 05:06:37;;;;;;;0.20;0.20;;;19.10;90.10;;;;;;5056246;28;20423;-79
2021/07/06 05:09:03;;;;;;;0.20;0.20;;;19.10;90.10;;;;;;5056177;28;20100;-81
2021/07/06 05:11:28;;;;;;;0.30;0.30;;;19.10;90.10;;;;;;5056121;28;20088;-82
2021/07/06 05:13:54;;;;;;;0.98;0.30;;;19.10;90.10;;;;;;5037616;28;20064;-82
2021/07/06 05:16:19;;;;;;;0.30;0.30;;;19.10;90.10;;;;;;5056268;28;20102;-83
2021/07/06 05:18:45;;;;;;;0.32;0.32;;;19.20;90.10;;;;;;5037873;28;20033;-83
2021/07/06 05:21:10;;;;;;;0.30;0.30;;;19.20;90.10;;;;;;5056095;28;20083;-80
2021/07/06 05:23:36;;;;;;;0.30;0.30;;;19.30;90.10;;;;;;5055798;28;20477;-80
2021/07/06 05:26:02;;;;;;;0.77;0.55;;;19.40;90.10;;;;;;5055859;28;20021;-80
2021/07/06 05:28:28;;;;;;;0.10;0.10;;;19.40;90.00;;;;;;5055208;28;20473;-80
2021/07/06 05:30:54;;;;;;;0.25;0.20;;;19.50;90.00;;;;;;5055735;28;20031;-81
2021/07/06 05:33:20;;;;;;;0.40;0.40;;;19.50;90.00;;;;;;5037667;28;20116;-81
2021/07/06 05:35:45;;;;;;;0.45;0.32;;;19.60;90.00;;;;;;5055670;28;20041;-81
2021/07/06 05:38:13;;;;;;;0.40;0.40;;;19.60;90.00;;;;;;5055415;28;20017;-80
2021/07/06 05:40:39;;;;;;;0.30;0.30;;;19.70;90.00;;;;;;5055481;28;20044;-79
2021/07/06 05:43:07;;;;;;;0.28;0.22;;;19.70;90.00;;;;;;5054928;28;20075;-79
2021/07/06 05:45:33;;;;;;;1.20;0.32;;;19.70;89.90;;;;;;5055399;28;20493;-79
2021/07/06 05:47:59;;;;;;;0.35;0.20;;;19.80;89.90;;;;;;5055215;28;20032;-81
2021/07/06 05:50:25;;;;;;;0.45;0.35;;;19.80;89.90;;;;;;5054058;28;20025;-79
2021/07/06 05:52:51;;;;;;;0.32;0.32;;;19.80;89.90;;;;;;5055353;28;20070;-79
2021/07/06 05:55:16;;;;;;;0.40;0.38;;;19.90;89.90;;;;;;5037389;28;20481;-80
2021/07/06 05:57:43;;;;;;;1.10;0.40;;;19.90;89.90;;;;;;5054739;28;20566;-77
2021/07/06 06:00:14;;;;;;;0.32;0.32;;;19.90;89.90;;;;;;5050260;28;20021;-75
2021/07/06 06:02:40;;;;;;;0.43;0.43;;;19.90;89.80;;;;;;5056044;28;20064;-75
2021/07/06 06:05:07;;;;;;;0.60;0.60;;;19.90;89.90;;;;;;5072918;28;20024;-76
2021/07/06 06:07:37;;;;;;;0.50;0.50;;;20.00;89.90;;;;;;5056040;28;20027;-76
2021/07/06 06:10:04;;;;;;;0.75;0.75;;;20.00;89.90;;;;;;5073992;28;20031;-76
2021/07/06 06:12:30;;;;;;;0.50;0.50;;;20.00;89.80;;;;;;5056340;28;20020;-74
2021/07/06 06:14:55;;;;;;;0.50;0.50;;;20.00;89.80;;;;;;5036398;28;20436;-76
2021/07/06 06:17:21;;;;;;;0.43;0.30;;;20.10;89.80;;;;;;5053163;28;20043;-76
2021/07/06 06:19:46;;;;;;;0.45;0.45;;;20.10;89.80;;;;;;5074088;28;20040;-75
2021/07/06 06:22:12;;;;;;;0.40;0.40;;;20.20;89.80;;;;;;5074439;28;20082;-76
2021/07/06 06:24:38;;;;;;;0.60;0.60;;;20.20;89.80;;;;;;5074454;28;20020;-76
2021/07/06 06:27:04;;;;;;;0.20;0.20;;;20.20;89.70;;;;;;5074022;28;20073;-76
2021/07/06 06:29:29;;;;;;;0.38;0.38;;;20.20;89.70;;;;;;5057891;28;20075;-75
2021/07/06 06:31:55;;;;;;;0.50;0.50;;;20.30;89.70;;;;;;5054000;28;20017;-76
2021/07/06 06:34:20;;;;;;;0.30;0.30;;;20.30;89.70;;;;;;5052452;28;20470;-75
2021/07/06 06:36:46;;;;;;;0.20;0.20;;;20.30;89.60;;;;;;5036217;28;20588;-75
2021/07/06 06:39:11;;;;;;;0.52;0.43;;;20.30;89.50;;;;;;5054235;28;20037;-76
2021/07/06 06:41:37;;;;;;;0.30;0.30;;;20.40;89.50;;;;;;5035715;28;20040;-75
2021/07/06 06:44:02;;;;;;;0.60;0.60;;;20.40;90.00;;;;;;5054214;28;20039;-78
2021/07/06 06:46:28;;;;;;;0.45;0.45;;;20.40;90.00;;;;;;5054252;28;20020;-77
2021/07/06 06:48:53;;;;;;;1.02;0.77;;;20.40;89.50;;;;;;5054306;28;20075;-78
2021/07/06 06:51:19;;;;;;;0.75;0.45;;;20.40;89.40;;;;;;5054106;28;20067;-76
2021/07/06 06:53:47;;;;;;;1.48;0.47;;;20.40;89.40;;;;;;5036142;28;20520;-77
2021/07/06 06:56:12;;;;;;;0.52;0.32;;;20.40;89.40;;;;;;5053571;28;20361;-78
2021/07/06 06:58:38;;;;;;;0.30;0.30;;;20.50;89.40;;;;;;5053902;28;20033;-76
2021/07/06 07:01:03;;;;;;;0.30;0.30;;;20.50;89.40;;;;;;5053258;28;20045;-78
2021/07/06 07:03:29;;;;;;;0.50;0.50;;;20.50;89.30;;;;;;5054081;28;20029;-77
2021/07/06 07:05:55;;;;;;;0.47;0.47;;;20.60;89.30;;;;;;5053820;28;20082;-78
2021/07/06 07:08:21;;;;;;;0.30;0.30;;;20.60;89.30;;;;;;5053784;28;20032;-77
2021/07/06 07:10:48;;;;;;;0.43;0.43;;;20.70;89.30;;;;;;5053350;28;20021;-80
2021/07/06 07:13:14;;;;;;;0.30;0.30;;;20.80;89.20;;;;;;5035839;28;20036;-79
2021/07/06 07:15:39;;;;;;;0.30;0.30;;;20.80;89.00;;;;;;5053627;28;20025;-82
2021/07/06 07:18:05;;;;;;;0.35;0.35;;;20.90;89.00;;;;;;5035867;28;20017;-84
2021/07/06 07:20:31;;;;;;;0.35;0.30;;;21.00;88.90;;;;;;5053413;28;20440;-82
2021/07/06 07:22:57;;;;;;;0.40;0.40;;;21.00;88.70;;;;;;5053732;28;20032;-79
2021/07/06 07:25:23;;;;;;;0.45;0.45;;;21.10;88.70;;;;;;5053179;28;20033;-81
2021/07/06 07:27:49;;;;;;;0.35;0.35;;;21.10;88.60;;;;;;5053563;28;20071;-79
2021/07/06 07:30:17;;;;;;;1.00;0.63;;;21.20;88.60;;;;;;5053251;28;20540;-80
2021/07/06 07:32:42;;;;;;;0.30;0.30;;;21.20;89.10;;;;;;5035622;28;20047;-80
2021/07/06 07:35:09;;;;;;;0.52;0.50;;;21.20;88.40;;;;;;5053439;28;20466;-79
2021/07/06 07:37:34;;;;;;;0.47;0.40;;;21.20;88.40;;;;;;5053130;28;20029;-78
2021/07/06 07:40:02;;;;;;;0.52;0.52;;;21.20;88.40;;;;;;5052855;28;20040;-78
2021/07/06 07:42:27;;;;;;;0.30;0.30;;;21.20;88.50;;;;;;5053240;28;20058;-80
2021/07/06 07:44:53;;;;;;;0.20;0.20;;;21.20;88.50;;;;;;5053255;28;20390;-77
2021/07/06 07:47:18;;;;;;;0.40;0.40;;;21.20;88.50;;;;;;5053072;28;20096;-78
2021/07/06 07:49:44;;;;;;;0.30;0.30;;;21.20;88.60;;;;;;5053195;28;20082;-78
2021/07/06 07:52:10;;;;;;;0.47;0.47;;;21.10;88.50;;;;;;5053187;28;20386;-77
2021/07/06 07:54:36;;;;;;;0.47;0.40;;;21.10;88.60;;;;;;5052611;28;20363;-76
2021/07/06 07:57:07;;;;;;;0.20;0.20;;;21.10;88.50;;;;;;5053056;28;20536;-78
2021/07/06 07:59:33;;;;;;;0.35;0.35;;;21.10;88.50;;;;;;5053055;28;20033;-77
2021/07/06 08:01:59;;;;;;;0.20;0.20;;;21.10;88.40;;;;;;5052850;28;20124;-78
2021/07/06 08:04:24;;;;;;;0.40;0.40;;;21.20;88.20;;;;;;5035396;28;20020;-78
2021/07/06 08:06:50;;;;;;;0.40;0.40;;;21.20;88.20;;;;;;5052614;28;20024;-79
2021/07/06 08:09:15;;;;;;;0.85;0.85;;;21.10;88.20;;;;;;5052881;28;20021;-77
2021/07/06 08:11:43;;;;;;;0.40;0.40;;;21.10;88.10;;;;;;5052893;28;20009;-77
2021/07/06 08:14:09;;;;;;;0.90;0.63;;;21.20;88.10;;;;;;5037701;28;20039;-76
2021/07/06 08:16:34;;;;;;;0.38;0.38;;;21.20;87.90;;;;;;5057142;28;20100;-77
2021/07/06 08:19:00;;;;;;;1.13;0.45;;;21.20;87.80;;;;;;5057004;28;20098;-75
2021/07/06 08:21:25;;;;;;;0.38;0.35;;;21.20;87.70;;;;;;5038624;28;20100;-77
2021/07/06 08:23:51;;;;;;;0.63;0.50;;;21.20;87.60;;;;;;5057008;28;20424;-77
2021/07/06 08:26:17;;;;;;;0.40;0.40;;;21.20;87.60;;;;;;5056921;28;20021;-78
2021/07/06 08:28:45;;;;;;;1.17;0.32;;;21.20;87.50;;;;;;5057018;28;20029;-76
2021/07/06 08:31:14;;;;;;;1.27;0.40;;;21.10;87.60;;;;;;5057280;28;20047;-76
2021/07/06 08:33:39;;;;;;;0.40;0.40;;;21.20;87.50;;;;;;5056795;28;20106;-75
2021/07/06 08:36:05;;;;;;;0.40;0.30;;;21.20;87.30;;;;;;5056267;28;20474;-77
2021/07/06 08:38:33;;;;;;;0.40;0.40;;;21.40;87.20;;;;;;5056755;28;20033;-77
2021/07/06 08:40:59;;;;;;;0.20;0.20;;;21.60;86.80;;;;;;5056633;28;20380;-75
2021/07/06 08:43:24;;;;;;;2.40;0.52;;;21.70;86.50;;;;;;5056595;28;20025;-76
2021/07/06 08:45:50;;;;;;;1.27;0.30;;;21.70;86.00;;;;;;5056585;28;20025;-75
2021/07/06 08:48:16;;;;;;;0.38;0.38;;;21.80;86.10;;;;;;5038496;28;20377;-77
2021/07/06 08:50:44;;;;;;;0.40;0.35;;;21.80;86.30;;;;;;5056223;28;20385;-77
2021/07/06 08:53:09;;;;;;;0.17;0.17;;;21.90;86.10;;;;;;5056376;28;20469;-76
2021/07/06 08:55:35;;;;;;;0.30;0.30;;;22.00;85.80;;;;;;5056869;28;20051;-77
2021/07/06 08:58:00;;;;;;;0.50;0.50;;;22.10;85.70;;;;;;5038274;28;20028;-77
2021/07/06 09:00:30;;;;;;;0.30;0.30;;;22.00;85.70;;;;;;5038315;28;20083;-76
2021/07/06 09:02:57;;;;;;;0.30;0.30;;;21.90;85.80;;;;;;5056076;28;20051;-77
2021/07/06 09:05:23;;;;;;;0.13;0.13;;;21.80;86.20;;;;;;5037883;28;20044;-78
2021/07/06 09:07:49;;;;;;;0.10;0.10;;;21.90;86.10;;;;;;5056101;28;20017;-74
2021/07/06 09:10:24;;;;;;;0.40;0.40;;;22.10;85.80;;;;;;5038025;28;20496;-77
2021/07/06 09:12:49;;;;;;;0.20;0.20;;;22.30;85.50;;;;;;5056133;28;20482;-77
2021/07/06 09:15:23;;;;;;;0.17;0.17;;;22.40;85.00;;;;;;5038053;28;20040;-78
2021/07/06 09:18:07;;;;;;;0.25;0.10;;;22.50;84.90;;;;;;5055824;28;20482;-77
2021/07/06 09:20:34;;;;;;;0.20;0.20;;;22.60;84.80;;;;;;5037732;28;20040;-77
2021/07/06 09:23:24;;;;;;;0.80;0.28;;;22.60;84.70;;;;;;5055880;28;20021;-79
2021/07/06 09:26:10;;;;;;;0.30;0.30;;;22.60;84.70;;;;;;5055675;28;20025;-77
2021/07/06 09:28:39;;;;;;;0.77;0.20;;;22.40;84.90;;;;;;5055688;28;20025;-76
2021/07/06 09:31:37;;;;;;;0.10;0.10;;;22.30;85.30;;;;;;5037630;28;20474;-73
2021/07/06 09:34:06;;;;;;;0.30;0.30;;;22.30;85.60;;;;;;5000903;28;20076;-76
2021/07/06 09:36:36;;;;;;;1.20;0.27;;;22.20;85.40;;;;;;5055730;28;20029;-76
2021/07/06 09:39:11;;;;;;;0.20;0.20;;;22.00;85.40;;;;;;5055522;28;20413;-76
2021/07/06 09:41:37;;;;;;;0.30;0.30;;;21.90;85.70;;;;;;5037555;28;20017;-77
2021/07/06 09:44:18;;;;;;;0.35;0.32;;;22.00;85.50;;;;;;5037462;28;20032;-77
2021/07/06 09:46:49;;;;;;;0.40;0.40;;;22.10;85.30;;;;;;5055555;28;20021;-76
2021/07/06 09:49:20;;;;;;;0.20;0.20;;;22.20;85.10;;;;;;5054987;28;20025;-78
2021/07/06 09:51:48;;;;;;;0.20;0.20;;;22.30;84.90;;;;;;5055410;28;20021;-76
2021/07/06 09:54:32;;;;;;;0.45;0.45;;;22.40;84.50;;;;;;5037210;28;20029;-75
2021/07/06 09:57:25;;;;;;;0.45;0.30;;;22.50;84.30;;;;;;5055193;28;20086;-76
2021/07/06 09:59:59;;;;;;;0.43;0.43;;;22.40;84.00;;;;;;5055210;28;20105;-75
2021/07/06 10:02:26;;;;;;;0.20;0.20;;;22.20;84.60;;;;;;5055066;28;20489;-77
2021/07/06 10:04:53;;;;;;;0.40;0.40;;;22.00;84.90;;;;;;5036817;28;20104;-76
2021/07/06 10:07:21;;;;;;;0.70;0.55;;;22.00;84.80;;;;;;5054919;28;20028;-76
2021/07/06 10:09:47;;;;;;;0.40;0.38;;;22.10;85.10;;;;;;5054944;28;20366;-77
2021/07/06 10:12:14;;;;;;;0.95;0.50;;;22.30;84.30;;;;;;5054988;28;20102;-77
2021/07/06 10:14:39;;;;;;;0.28;0.25;;;22.40;83.70;;;;;;5054815;28;20027;-76
2021/07/06 10:17:06;;;;;;;0.43;0.43;;;22.50;83.60;;;;;;5054870;28;20025;-75
2021/07/06 10:19:34;;;;;;;0.50;0.47;;;22.70;83.60;;;;;;5054245;28;20072;-77
2021/07/06 10:22:00;;;;;;;0.43;0.32;;;22.80;83.20;;;;;;5054924;28;20021;-76
2021/07/06 10:24:25;;;;;;;0.40;0.20;;;22.80;83.40;;;;;;5054652;28;20017;-78
2021/07/06 10:27:03;;;;;;;0.85;0.45;;;22.90;83.20;;;;;;5054795;28;20433;-76
2021/07/06 10:29:35;;;;;;;0.30;0.30;;;23.00;82.90;;;;;;5054743;28;20092;-77
2021/07/06 10:32:03;;;;;;;0.20;0.20;;;23.20;82.60;;;;;;5054200;28;20017;-76
2021/07/06 10:34:29;;;;;;;1.85;1.38;;;23.20;82.40;;;;;;5054258;28;20022;-75
2021/07/06 10:36:59;;;;;;;0.40;0.40;;;23.20;82.20;;;;;;5053797;28;20029;-76
2021/07/06 10:39:45;;;;;;;0.82;0.40;;;22.90;82.60;;;;;;5054361;28;20456;-77
2021/07/06 10:42:11;;;;;;;1.05;0.40;;;22.80;82.80;;;;;;5054445;28;20025;-77
2021/07/06 10:44:39;;;;;;;0.45;0.45;;;22.70;83.10;;;;;;5054308;28;20138;-77
2021/07/06 10:47:05;;;;;;;0.20;0.20;;;22.70;82.50;;;;;;5053663;28;20032;-76
2021/07/06 10:49:33;;;;;;;0.68;0.55;;;22.80;82.50;;;;;;5054318;28;20025;-78
2021/07/06 10:52:01;;;;;;;0.50;0.50;;;22.70;82.30;;;;;;5036285;28;20017;-75
2021/07/06 10:54:32;;;;;;;0.52;0.47;;;22.50;82.40;;;;;;5054098;28;20021;-75
2021/07/06 10:57:05;;;;;;;0.80;0.40;;;22.30;82.60;;;;;;5054166;28;20124;-77
2021/07/06 10:59:30;;;;;;;0.15;0.15;;;22.30;82.80;;;;;;5054037;28;20033;-75
2021/07/06 11:02:00;;;;;;;1.05;0.30;;;22.20;82.70;;;;;;5035429;28;20049;-75
2021/07/06 11:04:45;;;;;;;0.55;0.55;;;22.40;82.20;;;;;;5053818;28;20032;-76
2021/07/06 11:07:15;;;;;;;1.35;0.38;;;22.50;81.80;;;;;;5054007;28;20143;-75
2021/07/06 11:09:40;;;;;;;0.30;0.30;;;22.50;81.60;;;;;;5053807;28;20108;-75
2021/07/06 11:12:35;;;;;;;1.20;0.47;;;22.60;81.70;;;;;;5047061;28;20162;-75
2021/07/06 11:15:27;;;;;;;0.70;0.38;;;22.70;82.20;;;;;;5053371;28;20031;-74
2021/07/06 11:18:01;;;;;;;0.60;0.30;;;22.80;81.70;;;;;;5050535;28;20134;-76
2021/07/06 11:20:29;;;;;;;0.47;0.40;;;23.10;81.50;;;;;;5052917;28;20029;-78
2021/07/06 11:22:56;;;;;;;0.50;0.50;;;23.20;80.60;;;;;;5053470;28;20100;-73
2021/07/06 11:25:27;;;;;;;0.30;0.30;;;23.50;80.70;;;;;;5053488;28;20017;-75
2021/07/06 11:28:00;;;;;;;1.27;0.70;;;24.00;79.40;;;;;;5053504;28;20100;-74
2021/07/06 11:30:37;;;;;;;0.43;0.35;;;24.20;77.90;;;;;;5052874;28;20470;-76
2021/07/06 11:33:13;;;;;;;0.32;0.32;;;23.80;78.20;;;;;;5053675;28;20358;-77
2021/07/06 11:35:41;;;;;;;0.43;0.20;;;23.40;79.30;;;;;;5035486;28;20025;-75
2021/07/06 11:38:15;;;;;;;0.77;0.40;;;23.70;79.20;;;;;;5053099;28;20074;-74
2021/07/06 11:40:43;;;;;;;0.52;0.50;;;24.30;77.90;;;;;;5035192;28;20037;-77
2021/07/06 11:43:12;;;;;;;1.17;0.40;;;25.00;76.50;;;;;;5053175;28;20020;-74
2021/07/06 11:45:38;;;;;;;0.50;0.50;;;25.50;75.70;;;;;;5052563;28;20470;-74
2021/07/06 11:48:08;;;;;;;0.25;0.25;;;26.00;74.50;;;;;;5053020;28;20281;-74
2021/07/06 11:50:35;;;;;;;0.82;0.50;;;25.90;74.40;;;;;;5053064;28;20016;-75
2021/07/06 11:53:01;;;;;;;0.40;0.40;;;25.40;74.60;;;;;;5053004;28;20057;-74
2021/07/06 11:55:30;;;;;;;0.88;0.40;;;25.10;75.60;;;;;;5052951;28;20035;-75
2021/07/06 11:57:57;;;;;;;0.38;0.25;;;25.10;75.70;;;;;;5053009;28;20021;-75
2021/07/06 12:00:24;;;;;;;0.52;0.28;;;24.90;75.50;;;;;;5052403;28;20036;-76
2021/07/06 12:02:50;;;;;;;0.68;0.52;;;24.30;75.80;;;;;;5052848;28;20151;-76
2021/07/06 12:05:18;;;;;;;0.45;0.45;;;23.80;77.00;;;;;;5052888;28;20075;-77
2021/07/06 12:07:44;;;;;;;0.60;0.20;;;23.50;77.50;;;;;;5052811;28;20063;-76
2021/07/06 12:10:10;;;;;;;2.10;0.90;;;23.70;77.70;;;;;;5052769;28;20040;-75
2021/07/06 12:12:39;;;;;;;3.33;1.00;;;24.00;76.10;;;;;;5052672;28;20503;-75
2021/07/06 12:15:06;;;;;;;0.30;0.30;;;24.10;75.30;;;;;;5052330;28;20029;-74
2021/07/06 12:17:34;;;;;;;1.67;0.50;;;23.90;75.70;;;;;;5052815;28;20398;-76
2021/07/06 12:20:02;;;;;;;0.63;0.30;;;23.90;75.70;;;;;;5052709;28;20029;-76
2021/07/06 12:22:28;;;;;;;0.55;0.55;;;23.90;75.40;;;;;;5051815;28;20496;-77
2021/07/06 12:24:56;;;;;;;0.20;0.20;;;24.20;75.40;;;;;;5052662;28;20096;-76
2021/07/06 12:27:23;;;;;;;0.35;0.35;;;24.40;75.00;;;;;;5052800;28;20032;-76
2021/07/06 12:30:01;;;;;;;1.30;0.68;;;24.30;74.20;;;;;;5052259;28;20207;-79
2021/07/06 12:32:27;;;;;;;0.32;0.32;;;24.00;74.50;;;;;;5052810;28;20029;-76
2021/07/06 12:34:58;;;;;;;1.48;0.60;;;23.60;75.20;;;;;;5052805;28;20521;-75
2021/07/06 12:37:26;;;;;;;0.40;0.40;;;23.30;75.60;;;;;;5052636;28;20513;-76
2021/07/06 12:39:54;;;;;;;0.25;0.25;;;23.10;75.90;;;;;;5034464;28;20075;-77
2021/07/06 12:42:24;;;;;;;0.55;0.55;;;23.00;76.00;;;;;;5052000;28;20021;-77
2021/07/06 12:44:55;;;;;;;0.30;0.30;;;22.90;75.90;;;;;;5052467;28;20127;-78
2021/07/06 12:47:31;;;;;;;0.40;0.40;;;22.90;75.70;;;;;;5034696;28;20025;-76
2021/07/06 12:50:08;;;;;;;0.40;0.40;;;23.00;75.90;;;;;;5052415;28;20112;-76